Enter the Airport ICAO Code

Search by Airport or City

Current Weather

SKBO | El Dorado International Airport

Bogotá, Colombia

Last Update 23 Minutes Ago

Partly Cloudy Sky

Temperature of 21 ºC

Light to Moderate Winds from East

Temperature

21 ºC

Dew Point Temperature

03 ºC

Relative Humidity

30.65 %

Wind Direction

East (110º, Without Significant Variations)

Wind Velocity

11 km/h (06 kt)

Gusts

None

Visibility

Greater than 10 Kilometers

Sea Level Pressure

1027 hPa (Hectopascals)

Layers of Clouds

5% to 30% of Sky Covered from 610 mts (2000 ft) Above Ground Level.

30% to 60% of Sky Covered from 6096 mts (20000 ft) Above Ground Level.

METAR SKBO 201700Z 11006KT 9999 FEW020 SCT200 21/03 Q1027 NOSIG RMK A3033

Weather Forecast

SKBO | El Dorado International Airport

Bogotá, Colombia

Forecast valid for the next 25 Hours

In 1 hour it is expected the begining of:

Sky with Few Clouds

Light to Moderate Winds from SouthEast

In 4 to 5 hours it is expected the begining of:

Light to Moderate Winds from NorthWest

In 11 to 13 hours it is expected the begining of:

Light to Moderate Winds from NorthEast

Maximum Temperature

No Data

Minimum Temperature

No Data

TAF SKBO 201630Z 2018/2118 12006KT 9999 FEW020 BECMG 2021/2022 32007KT BECMG 2104/2106 03005KT TX21/2019Z TN04/2109Z